sensor_id;sensor_type;location;lat;lon;timestamp;P1;durP1;ratioP1;P2;durP2;ratioP2
64487;SDS011;50864;45.050;39.014;2023-04-24T00:01:16;6.80;;;3.92;;
64487;SDS011;50864;45.050;39.014;2023-04-24T00:03:43;8.85;;;4.30;;
64487;SDS011;50864;45.050;39.014;2023-04-24T00:06:08;7.80;;;3.75;;
64487;SDS011;50864;45.050;39.014;2023-04-24T00:08:34;7.10;;;4.20;;
64487;SDS011;50864;45.050;39.014;2023-04-24T00:11:01;11.25;;;4.40;;
64487;SDS011;50864;45.050;39.014;2023-04-24T00:13:27;7.47;;;4.20;;
64487;SDS011;50864;45.050;39.014;2023-04-24T00:15:54;8.88;;;4.25;;
64487;SDS011;50864;45.050;39.014;2023-04-24T00:18:20;7.68;;;3.90;;
64487;SDS011;50864;45.050;39.014;2023-04-24T00:20:46;7.53;;;3.90;;
64487;SDS011;50864;45.050;39.014;2023-04-24T00:23:12;8.98;;;3.92;;
64487;SDS011;50864;45.050;39.014;2023-04-24T00:25:38;8.90;;;4.10;;
64487;SDS011;50864;45.050;39.014;2023-04-24T00:28:04;6.78;;;4.00;;
64487;SDS011;50864;45.050;39.014;2023-04-24T00:30:29;9.57;;;4.07;;
64487;SDS011;50864;45.050;39.014;2023-04-24T00:32:55;9.95;;;4.32;;
64487;SDS011;50864;45.050;39.014;2023-04-24T00:35:22;9.27;;;4.12;;
64487;SDS011;50864;45.050;39.014;2023-04-24T00:37:48;7.10;;;3.62;;
64487;SDS011;50864;45.050;39.014;2023-04-24T00:40:15;6.03;;;3.42;;
64487;SDS011;50864;45.050;39.014;2023-04-24T00:42:41;7.30;;;4.12;;
64487;SDS011;50864;45.050;39.014;2023-04-24T00:45:08;10.27;;;4.18;;
64487;SDS011;50864;45.050;39.014;2023-04-24T00:47:34;8.25;;;3.83;;
64487;SDS011;50864;45.050;39.014;2023-04-24T00:50:03;9.82;;;3.90;;
64487;SDS011;50864;45.050;39.014;2023-04-24T00:52:29;7.57;;;4.00;;
64487;SDS011;50864;45.050;39.014;2023-04-24T00:54:56;7.12;;;3.90;;
64487;SDS011;50864;45.050;39.014;2023-04-24T00:57:22;7.68;;;4.12;;
64487;SDS011;50864;45.050;39.014;2023-04-24T00:59:49;7.15;;;3.80;;
64487;SDS011;50864;45.050;39.014;2023-04-24T01:02:15;9.23;;;4.00;;
64487;SDS011;50864;45.050;39.014;2023-04-24T01:04:41;10.38;;;4.35;;
64487;SDS011;50864;45.050;39.014;2023-04-24T01:07:07;9.15;;;4.60;;
64487;SDS011;50864;45.050;39.014;2023-04-24T01:09:36;9.85;;;4.97;;
64487;SDS011;50864;45.050;39.014;2023-04-24T01:12:03;8.02;;;4.28;;
64487;SDS011;50864;45.050;39.014;2023-04-24T01:14:29;7.97;;;4.43;;
64487;SDS011;50864;45.050;39.014;2023-04-24T01:16:56;9.10;;;4.57;;
64487;SDS011;50864;45.050;39.014;2023-04-24T01:19:22;9.48;;;4.80;;
64487;SDS011;50864;45.050;39.014;2023-04-24T01:21:49;7.90;;;3.92;;
64487;SDS011;50864;45.050;39.014;2023-04-24T01:24:17;7.43;;;4.22;;
64487;SDS011;50864;45.050;39.014;2023-04-24T01:26:44;8.60;;;4.15;;
64487;SDS011;50864;45.050;39.014;2023-04-24T01:29:10;11.70;;;4.62;;
64487;SDS011;50864;45.050;39.014;2023-04-24T01:31:37;6.62;;;3.80;;
64487;SDS011;50864;45.050;39.014;2023-04-24T01:34:03;8.38;;;4.32;;
64487;SDS011;50864;45.050;39.014;2023-04-24T01:36:29;7.53;;;4.15;;
64487;SDS011;50864;45.050;39.014;2023-04-24T01:38:57;10.57;;;4.53;;
64487;SDS011;50864;45.050;39.014;2023-04-24T01:41:25;8.75;;;4.40;;
64487;SDS011;50864;45.050;39.014;2023-04-24T01:43:50;6.80;;;3.72;;
64487;SDS011;50864;45.050;39.014;2023-04-24T01:46:18;8.32;;;4.28;;
64487;SDS011;50864;45.050;39.014;2023-04-24T01:48:45;8.05;;;4.18;;
64487;SDS011;50864;45.050;39.014;2023-04-24T01:51:11;9.32;;;3.70;;
64487;SDS011;50864;45.050;39.014;2023-04-24T01:53:36;9.13;;;4.70;;
64487;SDS011;50864;45.050;39.014;2023-04-24T01:56:02;6.95;;;4.65;;
64487;SDS011;50864;45.050;39.014;2023-04-24T01:58:28;5.75;;;3.20;;
64487;SDS011;50864;45.050;39.014;2023-04-24T02:00:58;7.65;;;4.07;;
64487;SDS011;50864;45.050;39.014;2023-04-24T02:03:25;9.68;;;4.35;;
64487;SDS011;50864;45.050;39.014;2023-04-24T02:05:50;7.87;;;3.97;;
64487;SDS011;50864;45.050;39.014;2023-04-24T02:08:16;9.73;;;4.30;;
64487;SDS011;50864;45.050;39.014;2023-04-24T02:10:42;8.77;;;4.47;;
64487;SDS011;50864;45.050;39.014;2023-04-24T02:13:08;10.05;;;4.87;;
64487;SDS011;50864;45.050;39.014;2023-04-24T02:15:34;10.30;;;5.37;;
64487;SDS011;50864;45.050;39.014;2023-04-24T02:18:02;6.40;;;3.95;;
64487;SDS011;50864;45.050;39.014;2023-04-24T02:20:30;11.02;;;6.18;;
64487;SDS011;50864;45.050;39.014;2023-04-24T02:22:59;9.02;;;5.60;;
64487;SDS011;50864;45.050;39.014;2023-04-24T02:25:25;10.90;;;4.32;;
64487;SDS011;50864;45.050;39.014;2023-04-24T02:27:53;9.48;;;5.25;;
64487;SDS011;50864;45.050;39.014;2023-04-24T02:30:19;10.32;;;5.05;;
64487;SDS011;50864;45.050;39.014;2023-04-24T02:32:45;12.88;;;5.20;;
64487;SDS011;50864;45.050;39.014;2023-04-24T02:35:11;8.10;;;4.95;;
64487;SDS011;50864;45.050;39.014;2023-04-24T02:37:36;9.00;;;4.85;;
64487;SDS011;50864;45.050;39.014;2023-04-24T02:40:02;7.80;;;4.55;;
64487;SDS011;50864;45.050;39.014;2023-04-24T02:42:28;9.63;;;4.72;;
64487;SDS011;50864;45.050;39.014;2023-04-24T02:44:54;10.05;;;5.30;;
64487;SDS011;50864;45.050;39.014;2023-04-24T02:47:19;11.82;;;4.78;;
64487;SDS011;50864;45.050;39.014;2023-04-24T02:49:48;10.25;;;4.65;;
64487;SDS011;50864;45.050;39.014;2023-04-24T02:52:14;8.15;;;4.37;;
64487;SDS011;50864;45.050;39.014;2023-04-24T02:54:40;8.40;;;4.72;;
64487;SDS011;50864;45.050;39.014;2023-04-24T02:57:06;11.12;;;4.97;;
64487;SDS011;50864;45.050;39.014;2023-04-24T02:59:31;10.73;;;4.78;;
64487;SDS011;50864;45.050;39.014;2023-04-24T03:01:57;9.15;;;4.78;;
64487;SDS011;50864;45.050;39.014;2023-04-24T03:04:23;9.32;;;4.75;;
64487;SDS011;50864;45.050;39.014;2023-04-24T03:06:49;9.60;;;4.80;;
64487;SDS011;50864;45.050;39.014;2023-04-24T03:09:19;9.07;;;4.93;;
64487;SDS011;50864;45.050;39.014;2023-04-24T03:11:46;8.20;;;4.62;;
64487;SDS011;50864;45.050;39.014;2023-04-24T03:14:12;7.40;;;4.25;;
64487;SDS011;50864;45.050;39.014;2023-04-24T03:16:38;10.20;;;4.68;;
64487;SDS011;50864;45.050;39.014;2023-04-24T03:19:05;10.75;;;4.95;;
64487;SDS011;50864;45.050;39.014;2023-04-24T03:21:32;9.70;;;4.85;;
64487;SDS011;50864;45.050;39.014;2023-04-24T03:23:58;10.02;;;4.90;;
64487;SDS011;50864;45.050;39.014;2023-04-24T03:26:24;8.32;;;4.70;;
64487;SDS011;50864;45.050;39.014;2023-04-24T03:28:51;9.82;;;4.60;;
64487;SDS011;50864;45.050;39.014;2023-04-24T03:31:17;10.15;;;5.28;;
64487;SDS011;50864;45.050;39.014;2023-04-24T03:33:44;10.40;;;4.90;;
64487;SDS011;50864;45.050;39.014;2023-04-24T03:36:10;10.63;;;4.95;;
64487;SDS011;50864;45.050;39.014;2023-04-24T03:38:37;10.13;;;5.18;;
64487;SDS011;50864;45.050;39.014;2023-04-24T03:41:04;10.48;;;5.30;;
64487;SDS011;50864;45.050;39.014;2023-04-24T03:43:31;10.45;;;5.22;;
64487;SDS011;50864;45.050;39.014;2023-04-24T03:45:58;10.82;;;5.43;;
64487;SDS011;50864;45.050;39.014;2023-04-24T03:48:25;11.82;;;5.65;;
64487;SDS011;50864;45.050;39.014;2023-04-24T03:50:51;12.43;;;5.72;;
64487;SDS011;50864;45.050;39.014;2023-04-24T03:53:17;11.25;;;5.18;;
64487;SDS011;50864;45.050;39.014;2023-04-24T03:55:43;14.10;;;4.93;;
64487;SDS011;50864;45.050;39.014;2023-04-24T03:58:09;12.23;;;5.40;;
64487;SDS011;50864;45.050;39.014;2023-04-24T04:00:36;11.75;;;5.32;;
64487;SDS011;50864;45.050;39.014;2023-04-24T04:03:05;12.40;;;5.32;;
64487;SDS011;50864;45.050;39.014;2023-04-24T04:05:36;10.85;;;5.45;;
64487;SDS011;50864;45.050;39.014;2023-04-24T04:08:02;10.82;;;4.85;;
64487;SDS011;50864;45.050;39.014;2023-04-24T04:10:28;13.73;;;5.80;;
64487;SDS011;50864;45.050;39.014;2023-04-24T04:12:54;10.50;;;5.12;;
64487;SDS011;50864;45.050;39.014;2023-04-24T04:15:19;10.13;;;5.62;;
64487;SDS011;50864;45.050;39.014;2023-04-24T04:17:45;10.32;;;4.97;;
64487;SDS011;50864;45.050;39.014;2023-04-24T04:20:11;11.05;;;4.93;;
64487;SDS011;50864;45.050;39.014;2023-04-24T04:22:37;10.77;;;5.45;;
64487;SDS011;50864;45.050;39.014;2023-04-24T04:25:06;9.05;;;4.37;;
64487;SDS011;50864;45.050;39.014;2023-04-24T04:27:34;12.55;;;5.30;;
64487;SDS011;50864;45.050;39.014;2023-04-24T04:30:01;11.70;;;5.35;;
64487;SDS011;50864;45.050;39.014;2023-04-24T04:32:34;9.13;;;4.70;;
64487;SDS011;50864;45.050;39.014;2023-04-24T04:35:02;8.90;;;5.12;;
64487;SDS011;50864;45.050;39.014;2023-04-24T04:37:31;11.88;;;5.15;;
64487;SDS011;50864;45.050;39.014;2023-04-24T04:39:59;11.80;;;5.18;;
64487;SDS011;50864;45.050;39.014;2023-04-24T04:42:29;11.35;;;5.28;;
64487;SDS011;50864;45.050;39.014;2023-04-24T04:44:54;10.43;;;5.75;;
64487;SDS011;50864;45.050;39.014;2023-04-24T04:47:23;11.63;;;6.12;;
64487;SDS011;50864;45.050;39.014;2023-04-24T04:49:49;12.68;;;6.85;;
64487;SDS011;50864;45.050;39.014;2023-04-24T04:52:17;13.85;;;6.10;;
64487;SDS011;50864;45.050;39.014;2023-04-24T04:54:44;13.60;;;6.72;;
64487;SDS011;50864;45.050;39.014;2023-04-24T04:57:11;14.05;;;6.75;;
64487;SDS011;50864;45.050;39.014;2023-04-24T04:59:38;11.18;;;5.68;;
64487;SDS011;50864;45.050;39.014;2023-04-24T05:02:05;11.98;;;6.22;;
64487;SDS011;50864;45.050;39.014;2023-04-24T05:04:31;12.05;;;5.75;;
64487;SDS011;50864;45.050;39.014;2023-04-24T05:06:57;13.02;;;5.78;;
64487;SDS011;50864;45.050;39.014;2023-04-24T05:09:23;15.23;;;5.78;;
64487;SDS011;50864;45.050;39.014;2023-04-24T05:11:53;9.75;;;4.82;;
64487;SDS011;50864;45.050;39.014;2023-04-24T05:14:19;11.30;;;5.00;;
64487;SDS011;50864;45.050;39.014;2023-04-24T05:16:46;9.70;;;5.05;;
64487;SDS011;50864;45.050;39.014;2023-04-24T05:19:12;9.70;;;5.87;;
64487;SDS011;50864;45.050;39.014;2023-04-24T05:21:39;8.15;;;4.35;;
64487;SDS011;50864;45.050;39.014;2023-04-24T05:24:07;13.85;;;5.45;;
64487;SDS011;50864;45.050;39.014;2023-04-24T05:26:33;10.82;;;5.55;;
64487;SDS011;50864;45.050;39.014;2023-04-24T05:29:01;15.07;;;7.05;;
64487;SDS011;50864;45.050;39.014;2023-04-24T05:31:28;11.40;;;5.62;;
64487;SDS011;50864;45.050;39.014;2023-04-24T05:33:54;9.90;;;5.18;;
64487;SDS011;50864;45.050;39.014;2023-04-24T05:36:22;11.65;;;6.10;;
64487;SDS011;50864;45.050;39.014;2023-04-24T05:38:48;12.15;;;6.05;;
64487;SDS011;50864;45.050;39.014;2023-04-24T05:41:14;14.55;;;6.50;;
64487;SDS011;50864;45.050;39.014;2023-04-24T05:43:40;13.70;;;6.43;;
64487;SDS011;50864;45.050;39.014;2023-04-24T05:46:07;14.05;;;6.28;;
64487;SDS011;50864;45.050;39.014;2023-04-24T05:48:32;10.35;;;5.80;;
64487;SDS011;50864;45.050;39.014;2023-04-24T05:51:00;12.10;;;5.90;;
64487;SDS011;50864;45.050;39.014;2023-04-24T05:53:26;16.02;;;7.15;;
64487;SDS011;50864;45.050;39.014;2023-04-24T05:55:52;16.50;;;7.45;;
64487;SDS011;50864;45.050;39.014;2023-04-24T05:58:18;14.80;;;6.87;;
64487;SDS011;50864;45.050;39.014;2023-04-24T06:00:44;16.05;;;6.07;;
64487;SDS011;50864;45.050;39.014;2023-04-24T06:03:12;18.92;;;6.60;;
64487;SDS011;50864;45.050;39.014;2023-04-24T06:05:37;13.77;;;6.32;;
64487;SDS011;50864;45.050;39.014;2023-04-24T06:08:03;13.13;;;6.35;;
64487;SDS011;50864;45.050;39.014;2023-04-24T06:10:30;15.30;;;6.43;;
64487;SDS011;50864;45.050;39.014;2023-04-24T06:12:56;16.65;;;6.57;;
64487;SDS011;50864;45.050;39.014;2023-04-24T06:15:27;14.77;;;6.40;;
64487;SDS011;50864;45.050;39.014;2023-04-24T06:17:54;20.67;;;8.10;;
64487;SDS011;50864;45.050;39.014;2023-04-24T06:20:20;14.95;;;8.27;;
64487;SDS011;50864;45.050;39.014;2023-04-24T06:22:46;21.90;;;7.57;;
64487;SDS011;50864;45.050;39.014;2023-04-24T06:25:12;21.92;;;9.80;;
64487;SDS011;50864;45.050;39.014;2023-04-24T06:27:38;16.62;;;8.40;;
64487;SDS011;50864;45.050;39.014;2023-04-24T06:30:03;32.13;;;22.90;;
64487;SDS011;50864;45.050;39.014;2023-04-24T06:32:29;23.38;;;11.70;;
64487;SDS011;50864;45.050;39.014;2023-04-24T06:34:56;24.25;;;12.48;;
64487;SDS011;50864;45.050;39.014;2023-04-24T06:37:21;19.05;;;8.57;;
64487;SDS011;50864;45.050;39.014;2023-04-24T06:39:48;14.77;;;7.82;;
64487;SDS011;50864;45.050;39.014;2023-04-24T06:42:13;20.05;;;10.00;;
64487;SDS011;50864;45.050;39.014;2023-04-24T06:44:42;21.10;;;8.05;;
64487;SDS011;50864;45.050;39.014;2023-04-24T06:47:09;15.13;;;8.05;;
64487;SDS011;50864;45.050;39.014;2023-04-24T06:49:35;13.52;;;7.03;;
64487;SDS011;50864;45.050;39.014;2023-04-24T06:52:01;17.77;;;7.95;;
64487;SDS011;50864;45.050;39.014;2023-04-24T06:54:27;14.23;;;6.87;;
64487;SDS011;50864;45.050;39.014;2023-04-24T06:56:52;13.13;;;6.93;;
64487;SDS011;50864;45.050;39.014;2023-04-24T06:59:18;12.18;;;6.72;;
64487;SDS011;50864;45.050;39.014;2023-04-24T07:01:44;13.95;;;6.68;;
64487;SDS011;50864;45.050;39.014;2023-04-24T07:04:10;11.18;;;6.05;;
64487;SDS011;50864;45.050;39.014;2023-04-24T07:06:37;14.90;;;6.30;;
64487;SDS011;50864;45.050;39.014;2023-04-24T07:09:03;15.35;;;6.93;;
64487;SDS011;50864;45.050;39.014;2023-04-24T07:11:29;11.88;;;5.65;;
64487;SDS011;50864;45.050;39.014;2023-04-24T07:13:55;10.50;;;5.93;;
64487;SDS011;50864;45.050;39.014;2023-04-24T07:16:21;11.35;;;6.12;;
64487;SDS011;50864;45.050;39.014;2023-04-24T07:18:47;11.73;;;5.90;;
64487;SDS011;50864;45.050;39.014;2023-04-24T07:21:12;12.43;;;6.32;;
64487;SDS011;50864;45.050;39.014;2023-04-24T07:23:38;12.90;;;5.62;;
64487;SDS011;50864;45.050;39.014;2023-04-24T07:26:06;12.37;;;5.55;;
64487;SDS011;50864;45.050;39.014;2023-04-24T07:28:32;12.45;;;5.00;;
64487;SDS011;50864;45.050;39.014;2023-04-24T07:30:58;10.70;;;5.10;;
64487;SDS011;50864;45.050;39.014;2023-04-24T07:33:25;9.43;;;5.35;;
64487;SDS011;50864;45.050;39.014;2023-04-24T07:35:51;11.82;;;4.53;;
64487;SDS011;50864;45.050;39.014;2023-04-24T07:38:17;8.93;;;4.53;;
64487;SDS011;50864;45.050;39.014;2023-04-24T07:40:45;9.88;;;4.78;;
64487;SDS011;50864;45.050;39.014;2023-04-24T07:43:11;9.88;;;5.00;;
64487;SDS011;50864;45.050;39.014;2023-04-24T07:45:37;10.55;;;4.45;;
64487;SDS011;50864;45.050;39.014;2023-04-24T07:48:03;8.65;;;4.28;;
64487;SDS011;50864;45.050;39.014;2023-04-24T07:50:29;8.35;;;4.70;;
64487;SDS011;50864;45.050;39.014;2023-04-24T07:52:55;10.30;;;5.50;;
64487;SDS011;50864;45.050;39.014;2023-04-24T07:55:20;9.27;;;4.75;;
64487;SDS011;50864;45.050;39.014;2023-04-24T07:57:46;8.60;;;4.50;;
64487;SDS011;50864;45.050;39.014;2023-04-24T08:00:12;15.15;;;5.03;;
64487;SDS011;50864;45.050;39.014;2023-04-24T08:02:38;9.73;;;5.00;;
64487;SDS011;50864;45.050;39.014;2023-04-24T08:05:04;10.63;;;4.80;;
64487;SDS011;50864;45.050;39.014;2023-04-24T08:07:29;10.25;;;4.68;;
64487;SDS011;50864;45.050;39.014;2023-04-24T08:09:55;9.93;;;5.05;;
64487;SDS011;50864;45.050;39.014;2023-04-24T08:12:21;11.60;;;5.25;;
64487;SDS011;50864;45.050;39.014;2023-04-24T08:14:47;12.98;;;5.78;;
64487;SDS011;50864;45.050;39.014;2023-04-24T08:17:13;10.07;;;4.40;;
64487;SDS011;50864;45.050;39.014;2023-04-24T08:19:39;8.05;;;4.60;;
64487;SDS011;50864;45.050;39.014;2023-04-24T08:22:08;8.85;;;4.87;;
64487;SDS011;50864;45.050;39.014;2023-04-24T08:24:34;12.73;;;6.00;;
64487;SDS011;50864;45.050;39.014;2023-04-24T08:26:59;12.45;;;5.80;;
64487;SDS011;50864;45.050;39.014;2023-04-24T08:29:26;13.25;;;6.47;;
64487;SDS011;50864;45.050;39.014;2023-04-24T08:31:52;12.80;;;6.40;;
64487;SDS011;50864;45.050;39.014;2023-04-24T08:34:20;16.12;;;7.22;;
64487;SDS011;50864;45.050;39.014;2023-04-24T08:36:45;18.58;;;8.98;;
64487;SDS011;50864;45.050;39.014;2023-04-24T08:39:11;17.40;;;9.38;;
64487;SDS011;50864;45.050;39.014;2023-04-24T08:41:37;15.88;;;9.50;;
64487;SDS011;50864;45.050;39.014;2023-04-24T08:44:03;16.10;;;9.02;;
64487;SDS011;50864;45.050;39.014;2023-04-24T08:46:30;16.10;;;9.77;;
64487;SDS011;50864;45.050;39.014;2023-04-24T08:48:56;17.67;;;9.65;;
64487;SDS011;50864;45.050;39.014;2023-04-24T08:51:21;17.70;;;10.00;;
64487;SDS011;50864;45.050;39.014;2023-04-24T08:53:48;14.30;;;8.60;;
64487;SDS011;50864;45.050;39.014;2023-04-24T08:56:13;15.07;;;8.85;;
64487;SDS011;50864;45.050;39.014;2023-04-24T08:58:39;16.62;;;9.10;;
64487;SDS011;50864;45.050;39.014;2023-04-24T09:01:06;16.20;;;8.75;;
64487;SDS011;50864;45.050;39.014;2023-04-24T09:03:33;18.67;;;9.68;;
64487;SDS011;50864;45.050;39.014;2023-04-24T09:05:58;16.83;;;9.18;;
64487;SDS011;50864;45.050;39.014;2023-04-24T09:08:25;14.82;;;9.07;;
64487;SDS011;50864;45.050;39.014;2023-04-24T09:10:51;16.83;;;10.55;;
64487;SDS011;50864;45.050;39.014;2023-04-24T09:13:18;17.77;;;9.57;;
64487;SDS011;50864;45.050;39.014;2023-04-24T09:15:44;15.73;;;9.40;;
64487;SDS011;50864;45.050;39.014;2023-04-24T09:18:10;15.18;;;8.88;;
64487;SDS011;50864;45.050;39.014;2023-04-24T09:20:56;16.30;;;9.52;;
64487;SDS011;50864;45.050;39.014;2023-04-24T09:23:21;17.23;;;8.88;;
64487;SDS011;50864;45.050;39.014;2023-04-24T09:25:48;19.33;;;9.90;;
64487;SDS011;50864;45.050;39.014;2023-04-24T09:28:19;15.88;;;9.05;;
64487;SDS011;50864;45.050;39.014;2023-04-24T09:30:45;15.68;;;8.55;;
64487;SDS011;50864;45.050;39.014;2023-04-24T09:33:12;18.65;;;9.35;;
64487;SDS011;50864;45.050;39.014;2023-04-24T09:35:40;18.17;;;9.07;;
64487;SDS011;50864;45.050;39.014;2023-04-24T09:38:06;18.90;;;9.85;;
64487;SDS011;50864;45.050;39.014;2023-04-24T09:40:31;15.55;;;8.95;;
64487;SDS011;50864;45.050;39.014;2023-04-24T09:42:59;16.75;;;9.80;;
64487;SDS011;50864;45.050;39.014;2023-04-24T09:45:28;18.25;;;10.82;;
64487;SDS011;50864;45.050;39.014;2023-04-24T09:48:00;15.25;;;10.13;;
64487;SDS011;50864;45.050;39.014;2023-04-24T09:50:25;21.15;;;10.70;;
64487;SDS011;50864;45.050;39.014;2023-04-24T09:52:58;23.83;;;11.07;;
64487;SDS011;50864;45.050;39.014;2023-04-24T09:55:24;21.90;;;11.02;;
64487;SDS011;50864;45.050;39.014;2023-04-24T09:57:55;17.83;;;10.63;;
64487;SDS011;50864;45.050;39.014;2023-04-24T10:00:21;21.55;;;11.38;;
64487;SDS011;50864;45.050;39.014;2023-04-24T10:03:06;23.00;;;12.48;;
64487;SDS011;50864;45.050;39.014;2023-04-24T10:05:33;21.58;;;11.50;;
64487;SDS011;50864;45.050;39.014;2023-04-24T10:08:03;18.60;;;10.43;;
64487;SDS011;50864;45.050;39.014;2023-04-24T10:10:29;17.27;;;10.32;;
64487;SDS011;50864;45.050;39.014;2023-04-24T10:12:55;23.20;;;13.62;;
64487;SDS011;50864;45.050;39.014;2023-04-24T10:15:21;21.12;;;10.82;;
64487;SDS011;50864;45.050;39.014;2023-04-24T10:17:48;18.65;;;10.40;;
64487;SDS011;50864;45.050;39.014;2023-04-24T10:20:21;19.12;;;10.90;;
64487;SDS011;50864;45.050;39.014;2023-04-24T10:22:48;19.90;;;9.57;;
64487;SDS011;50864;45.050;39.014;2023-04-24T10:25:16;18.08;;;9.30;;
64487;SDS011;50864;45.050;39.014;2023-04-24T10:27:42;18.87;;;10.35;;
64487;SDS011;50864;45.050;39.014;2023-04-24T10:30:08;14.35;;;8.60;;
64487;SDS011;50864;45.050;39.014;2023-04-24T10:32:36;17.37;;;9.68;;
64487;SDS011;50864;45.050;39.014;2023-04-24T10:35:02;14.93;;;9.63;;
64487;SDS011;50864;45.050;39.014;2023-04-24T10:37:28;16.52;;;9.43;;
64487;SDS011;50864;45.050;39.014;2023-04-24T10:39:54;14.48;;;9.25;;
64487;SDS011;50864;45.050;39.014;2023-04-24T10:42:21;18.42;;;9.18;;
64487;SDS011;50864;45.050;39.014;2023-04-24T10:44:48;16.37;;;9.43;;
64487;SDS011;50864;45.050;39.014;2023-04-24T10:47:15;17.83;;;9.38;;
64487;SDS011;50864;45.050;39.014;2023-04-24T10:49:40;15.52;;;9.48;;
64487;SDS011;50864;45.050;39.014;2023-04-24T10:52:08;15.32;;;9.93;;
64487;SDS011;50864;45.050;39.014;2023-04-24T10:59:51;15.88;;;10.40;;
64487;SDS011;50864;45.050;39.014;2023-04-24T11:02:17;15.35;;;8.85;;
64487;SDS011;50864;45.050;39.014;2023-04-24T11:04:45;18.25;;;10.40;;
64487;SDS011;50864;45.050;39.014;2023-04-24T11:07:14;20.95;;;12.48;;
64487;SDS011;50864;45.050;39.014;2023-04-24T11:09:40;17.15;;;10.27;;
64487;SDS011;50864;45.050;39.014;2023-04-24T11:12:09;19.37;;;10.23;;
64487;SDS011;50864;45.050;39.014;2023-04-24T11:17:34;18.85;;;9.93;;
64487;SDS011;50864;45.050;39.014;2023-04-24T11:20:04;16.55;;;9.85;;
64487;SDS011;50864;45.050;39.014;2023-04-24T11:22:32;17.17;;;9.60;;
64487;SDS011;50864;45.050;39.014;2023-04-24T11:24:59;17.42;;;10.20;;
64487;SDS011;50864;45.050;39.014;2023-04-24T11:27:29;15.38;;;9.68;;
64487;SDS011;50864;45.050;39.014;2023-04-24T11:37:39;21.45;;;12.63;;
64487;SDS011;50864;45.050;39.014;2023-04-24T11:40:05;16.27;;;10.43;;
64487;SDS011;50864;45.050;39.014;2023-04-24T11:42:35;17.73;;;11.27;;
64487;SDS011;50864;45.050;39.014;2023-04-24T11:45:06;18.90;;;10.43;;
64487;SDS011;50864;45.050;39.014;2023-04-24T11:47:33;17.90;;;10.20;;
64487;SDS011;50864;45.050;39.014;2023-04-24T11:49:59;19.90;;;10.90;;
64487;SDS011;50864;45.050;39.014;2023-04-24T11:52:25;18.23;;;10.75;;
64487;SDS011;50864;45.050;39.014;2023-04-24T11:54:52;19.37;;;9.98;;
64487;SDS011;50864;45.050;39.014;2023-04-24T11:57:21;16.02;;;10.13;;
64487;SDS011;50864;45.050;39.014;2023-04-24T11:59:48;20.10;;;11.48;;
64487;SDS011;50864;45.050;39.014;2023-04-24T12:02:21;19.20;;;10.82;;
64487;SDS011;50864;45.050;39.014;2023-04-24T12:04:47;19.40;;;11.12;;
64487;SDS011;50864;45.050;39.014;2023-04-24T12:07:13;20.40;;;11.10;;
64487;SDS011;50864;45.050;39.014;2023-04-24T12:09:42;20.85;;;11.12;;
64487;SDS011;50864;45.050;39.014;2023-04-24T12:12:08;20.05;;;12.20;;
64487;SDS011;50864;45.050;39.014;2023-04-24T12:14:44;19.17;;;11.70;;
64487;SDS011;50864;45.050;39.014;2023-04-24T12:17:10;18.45;;;11.65;;
64487;SDS011;50864;45.050;39.014;2023-04-24T12:19:36;20.77;;;11.63;;
64487;SDS011;50864;45.050;39.014;2023-04-24T12:22:02;17.08;;;10.73;;
64487;SDS011;50864;45.050;39.014;2023-04-24T12:24:29;18.98;;;11.68;;
64487;SDS011;50864;45.050;39.014;2023-04-24T12:29:30;21.62;;;12.32;;
64487;SDS011;50864;45.050;39.014;2023-04-24T12:31:56;20.20;;;11.75;;
64487;SDS011;50864;45.050;39.014;2023-04-24T12:34:23;22.10;;;12.07;;
64487;SDS011;50864;45.050;39.014;2023-04-24T12:36:50;19.62;;;11.63;;
64487;SDS011;50864;45.050;39.014;2023-04-24T12:39:16;18.70;;;12.05;;
64487;SDS011;50864;45.050;39.014;2023-04-24T12:41:55;21.40;;;10.98;;
64487;SDS011;50864;45.050;39.014;2023-04-24T12:46:51;17.90;;;10.43;;
64487;SDS011;50864;45.050;39.014;2023-04-24T12:49:16;17.65;;;10.90;;
64487;SDS011;50864;45.050;39.014;2023-04-24T12:51:42;20.00;;;10.18;;
64487;SDS011;50864;45.050;39.014;2023-04-24T12:54:08;20.42;;;10.07;;
64487;SDS011;50864;45.050;39.014;2023-04-24T12:56:33;16.90;;;10.30;;
64487;SDS011;50864;45.050;39.014;2023-04-24T12:58:59;16.65;;;10.32;;
64487;SDS011;50864;45.050;39.014;2023-04-24T13:01:25;17.65;;;10.80;;
64487;SDS011;50864;45.050;39.014;2023-04-24T13:03:51;17.62;;;10.25;;
64487;SDS011;50864;45.050;39.014;2023-04-24T13:06:17;19.42;;;10.77;;
64487;SDS011;50864;45.050;39.014;2023-04-24T13:08:43;17.12;;;10.35;;
64487;SDS011;50864;45.050;39.014;2023-04-24T13:11:09;17.80;;;10.00;;
64487;SDS011;50864;45.050;39.014;2023-04-24T13:13:35;19.42;;;10.18;;
64487;SDS011;50864;45.050;39.014;2023-04-24T13:16:00;16.60;;;9.70;;
64487;SDS011;50864;45.050;39.014;2023-04-24T13:18:26;17.50;;;10.05;;
64487;SDS011;50864;45.050;39.014;2023-04-24T13:20:53;16.65;;;10.27;;
64487;SDS011;50864;45.050;39.014;2023-04-24T13:23:19;23.10;;;12.60;;
64487;SDS011;50864;45.050;39.014;2023-04-24T13:25:45;23.60;;;13.60;;
64487;SDS011;50864;45.050;39.014;2023-04-24T13:28:12;23.85;;;13.90;;
64487;SDS011;50864;45.050;39.014;2023-04-24T13:30:38;20.58;;;11.43;;
64487;SDS011;50864;45.050;39.014;2023-04-24T13:33:04;19.55;;;11.73;;
64487;SDS011;50864;45.050;39.014;2023-04-24T13:35:30;19.75;;;12.30;;
64487;SDS011;50864;45.050;39.014;2023-04-24T13:37:57;16.75;;;11.02;;
64487;SDS011;50864;45.050;39.014;2023-04-24T13:40:22;16.25;;;9.63;;
64487;SDS011;50864;45.050;39.014;2023-04-24T13:42:49;19.87;;;10.07;;
64487;SDS011;50864;45.050;39.014;2023-04-24T13:45:14;18.60;;;11.12;;
64487;SDS011;50864;45.050;39.014;2023-04-24T13:47:40;16.17;;;9.75;;
64487;SDS011;50864;45.050;39.014;2023-04-24T13:50:07;17.27;;;10.32;;
64487;SDS011;50864;45.050;39.014;2023-04-24T13:52:33;15.98;;;9.68;;
64487;SDS011;50864;45.050;39.014;2023-04-24T13:54:59;16.20;;;9.80;;
64487;SDS011;50864;45.050;39.014;2023-04-24T13:57:25;16.35;;;9.90;;
64487;SDS011;50864;45.050;39.014;2023-04-24T13:59:51;18.37;;;9.80;;
64487;SDS011;50864;45.050;39.014;2023-04-24T14:02:16;15.60;;;10.60;;
64487;SDS011;50864;45.050;39.014;2023-04-24T14:04:42;15.45;;;9.40;;
64487;SDS011;50864;45.050;39.014;2023-04-24T14:07:08;14.87;;;10.00;;
64487;SDS011;50864;45.050;39.014;2023-04-24T14:09:34;15.10;;;9.70;;
64487;SDS011;50864;45.050;39.014;2023-04-24T14:12:00;19.60;;;9.52;;
64487;SDS011;50864;45.050;39.014;2023-04-24T14:14:27;16.92;;;10.52;;
64487;SDS011;50864;45.050;39.014;2023-04-24T14:16:52;17.52;;;8.95;;
64487;SDS011;50864;45.050;39.014;2023-04-24T14:19:18;16.02;;;10.07;;
64487;SDS011;50864;45.050;39.014;2023-04-24T14:21:44;16.08;;;10.20;;
64487;SDS011;50864;45.050;39.014;2023-04-24T14:24:10;16.62;;;10.07;;
64487;SDS011;50864;45.050;39.014;2023-04-24T14:26:36;15.43;;;9.65;;
64487;SDS011;50864;45.050;39.014;2023-04-24T14:29:01;14.27;;;9.32;;
64487;SDS011;50864;45.050;39.014;2023-04-24T14:31:27;17.60;;;10.70;;
64487;SDS011;50864;45.050;39.014;2023-04-24T14:33:54;16.83;;;9.85;;
64487;SDS011;50864;45.050;39.014;2023-04-24T14:36:20;16.75;;;10.43;;
64487;SDS011;50864;45.050;39.014;2023-04-24T14:38:46;16.33;;;10.50;;